Princeton, North Carolina
Current Conditions -  °F | °C
As of 3:55 AM on Sunday 26 Oct 2014 (Local Time) from KGWW Reporting Station
Clear Clear  
Wind Chill: 52°   Ceiling: Unl
Heat Index: 52°   Visibility: 10mi
Dew Point: 44°   Wind: 3mph
Humidity: 75%   Direction: 240°WSW
Pressure: 29.83"   Gusts: NA
Location:  35.47°N, 78.16°W
Report Text: KGWW 260755Z AUTO 24003KT 10SM CLR 11/07 A2983 RMK AO2 T01100067
Loading
Personal Weather Stations






























Interactive Weather Map
Tropical Storm Tracking
New forecast layout! Learn more

10-Day Weather Forecast

Advertisements
Track Severe Weather on mobile